createdAt,value
2023-04-07T00:00:48.073Z,9.00
2023-04-07T00:03:16.592Z,9.00
2023-04-07T00:05:45.114Z,8.90
2023-04-07T00:08:13.550Z,9.00
2023-04-07T00:10:41.991Z,9.00
2023-04-07T00:13:11.803Z,9.10
2023-04-07T00:15:40.319Z,9.10
2023-04-07T00:18:08.763Z,9.10
2023-04-07T00:20:37.089Z,9.10
2023-04-07T00:23:05.489Z,9.10
2023-04-07T00:25:33.814Z,9.00
2023-04-07T00:28:02.170Z,9.00
2023-04-07T00:30:31.887Z,8.90
2023-04-07T00:33:00.395Z,8.90
2023-04-07T00:35:28.882Z,9.00
2023-04-07T00:37:57.323Z,8.90
2023-04-07T00:40:26.073Z,8.90
2023-04-07T00:42:54.547Z,8.80
2023-04-07T00:45:22.992Z,8.80
2023-04-07T00:47:52.794Z,8.80
2023-04-07T00:50:21.237Z,8.80
2023-04-07T00:52:49.605Z,8.80
2023-04-07T00:55:18.044Z,8.80
2023-04-07T00:57:46.857Z,8.70
2023-04-07T01:00:15.498Z,8.70
2023-04-07T01:02:46.744Z,8.60
2023-04-07T01:05:18.142Z,8.60
2023-04-07T01:07:52.169Z,8.50
2023-04-07T01:10:22.988Z,8.50
2023-04-07T01:12:55.784Z,8.60
2023-04-07T01:15:25.491Z,8.50
2023-04-07T01:17:57.179Z,8.50
2023-04-07T01:20:28.093Z,8.40
2023-04-07T01:22:58.445Z,8.40
2023-04-07T01:25:36.819Z,8.30
2023-04-07T01:28:28.202Z,8.20
2023-04-07T01:30:58.731Z,8.20
2023-04-07T01:33:28.505Z,8.20
2023-04-07T01:35:58.556Z,8.20
2023-04-07T01:38:27.298Z,8.20
2023-04-07T01:40:56.418Z,8.20
2023-04-07T01:43:25.483Z,8.10
2023-04-07T01:45:54.938Z,8.00
2023-04-07T01:48:25.890Z,7.90
2023-04-07T01:50:54.630Z,7.80
2023-04-07T01:53:24.394Z,7.90
2023-04-07T01:55:53.748Z,7.80
2023-04-07T01:58:22.128Z,7.80
2023-04-07T02:00:50.899Z,7.80
2023-04-07T02:03:22.244Z,7.90
2023-04-07T02:05:55.954Z,7.80
2023-04-07T02:08:25.706Z,7.80
2023-04-07T02:10:54.656Z,7.80
2023-04-07T02:13:23.773Z,7.70
2023-04-07T02:15:53.056Z,7.70
2023-04-07T02:18:22.222Z,7.70
2023-04-07T02:20:53.340Z,7.70
2023-04-07T02:23:21.721Z,7.70
2023-04-07T02:25:50.231Z,7.70
2023-04-07T02:28:18.683Z,7.70
2023-04-07T02:30:47.073Z,7.70
2023-04-07T02:33:15.767Z,7.70
2023-04-07T02:35:44.170Z,7.60
2023-04-07T02:38:14.004Z,7.60
2023-04-07T02:40:42.380Z,7.60
2023-04-07T02:43:10.916Z,7.60
2023-04-07T02:45:39.351Z,7.60
2023-04-07T02:48:07.833Z,7.60
2023-04-07T02:50:36.330Z,7.60
2023-04-07T02:53:04.758Z,7.60
2023-04-07T02:55:34.502Z,7.70
2023-04-07T02:58:02.855Z,7.70
2023-04-07T03:00:31.335Z,7.70
2023-04-07T03:03:00.019Z,7.70
2023-04-07T03:05:28.644Z,7.60
2023-04-07T03:07:57.073Z,7.60
2023-04-07T03:10:25.487Z,7.50
2023-04-07T03:12:55.241Z,7.60
2023-04-07T03:15:23.684Z,7.60
2023-04-07T03:17:52.165Z,7.50
2023-04-07T03:20:20.667Z,7.60
2023-04-07T03:22:49.070Z,7.50
2023-04-07T03:25:17.633Z,7.50
2023-04-07T03:27:46.228Z,7.50
2023-04-07T03:30:16.333Z,7.50
2023-04-07T03:32:44.871Z,7.40
2023-04-07T03:35:13.372Z,7.50
2023-04-07T03:37:41.796Z,7.60
2023-04-07T03:40:10.551Z,7.60
2023-04-07T03:42:39.147Z,7.70
2023-04-07T03:45:08.175Z,7.60
2023-04-07T03:47:38.353Z,7.60
2023-04-07T03:50:07.366Z,7.70
2023-04-07T03:52:35.796Z,7.70
2023-04-07T03:55:04.231Z,7.80
2023-04-07T03:57:32.618Z,7.80
2023-04-07T04:00:01.018Z,7.60
2023-04-07T04:02:29.625Z,7.60
2023-04-07T04:04:59.609Z,7.50
2023-04-07T04:07:28.055Z,7.40
2023-04-07T04:09:56.555Z,7.40
2023-04-07T04:12:24.939Z,7.40
2023-04-07T04:14:53.263Z,7.40
2023-04-07T04:17:21.731Z,7.40
2023-04-07T04:19:51.270Z,7.40
2023-04-07T04:22:21.092Z,7.40
2023-04-07T04:24:49.439Z,7.50
2023-04-07T04:27:17.921Z,7.50
2023-04-07T04:29:46.393Z,7.50
2023-04-07T04:32:14.803Z,7.50
2023-04-07T04:34:43.242Z,7.50
2023-04-07T04:37:11.694Z,7.50
2023-04-07T04:39:41.806Z,7.30
2023-04-07T04:42:10.250Z,7.50
2023-04-07T04:44:38.752Z,7.40
2023-04-07T04:47:07.296Z,7.40
2023-04-07T04:49:36.172Z,7.40
2023-04-07T04:52:04.592Z,7.40
2023-04-07T04:54:33.229Z,7.30
2023-04-07T04:57:03.325Z,7.30
2023-04-07T04:59:31.725Z,7.30
2023-04-07T05:02:00.488Z,7.30
2023-04-07T05:04:29.331Z,7.40
2023-04-07T05:06:57.903Z,7.50
2023-04-07T05:09:26.378Z,7.50
2023-04-07T05:11:54.782Z,7.60
2023-04-07T05:14:24.712Z,7.50
2023-04-07T05:16:54.358Z,7.60
2023-04-07T05:19:22.928Z,7.70
2023-04-07T05:21:51.454Z,7.70
2023-04-07T05:24:19.878Z,7.60
2023-04-07T05:26:48.347Z,7.50
2023-04-07T05:29:16.791Z,7.60
2023-04-07T05:31:46.637Z,7.60
2023-04-07T05:34:15.259Z,7.70
2023-04-07T05:36:43.765Z,7.70
2023-04-07T05:39:12.204Z,7.70
2023-04-07T05:41:40.625Z,7.70
2023-04-07T05:44:09.083Z,7.70
2023-04-07T05:46:37.581Z,7.70
2023-04-07T05:51:41.690Z,7.70
2023-04-07T05:54:10.119Z,7.80
2023-04-07T05:56:38.555Z,8.00
2023-04-07T05:59:06.976Z,8.10
2023-04-07T06:01:35.511Z,8.20
2023-04-07T06:04:04.389Z,8.20
2023-04-07T06:06:34.255Z,8.30
2023-04-07T06:09:02.571Z,8.40
2023-04-07T06:11:31.000Z,8.50
2023-04-07T06:13:59.442Z,8.50
2023-04-07T06:16:27.909Z,8.50
2023-04-07T06:18:56.356Z,8.60
2023-04-07T06:21:25.578Z,8.70
2023-04-07T06:23:55.385Z,8.80
2023-04-07T06:26:23.837Z,8.90
2023-04-07T06:28:52.465Z,8.90
2023-04-07T06:31:21.133Z,8.90
2023-04-07T06:33:50.054Z,9.10
2023-04-07T06:36:18.814Z,9.10
2023-04-07T06:38:47.390Z,9.10
2023-04-07T06:41:18.003Z,9.10
2023-04-07T06:43:48.032Z,9.20
2023-04-07T06:46:16.707Z,9.20
2023-04-07T06:48:45.464Z,9.40
2023-04-07T06:51:13.924Z,9.50
2023-04-07T06:53:44.375Z,9.60
2023-04-07T06:56:13.081Z,9.70
2023-04-07T06:58:43.244Z,9.90
2023-04-07T07:01:11.767Z,9.90
2023-04-07T07:03:40.387Z,10.10
2023-04-07T07:06:09.014Z,10.10
2023-04-07T07:08:37.415Z,10.20
2023-04-07T07:11:06.020Z,10.20
2023-04-07T07:13:34.555Z,10.40
2023-04-07T07:16:04.576Z,10.50
2023-04-07T07:18:33.125Z,10.60
2023-04-07T07:21:01.599Z,10.70
2023-04-07T07:23:30.032Z,10.70
2023-04-07T07:25:58.526Z,10.80
2023-04-07T07:28:27.156Z,10.90
2023-04-07T07:30:55.544Z,11.00
2023-04-07T07:33:25.349Z,11.10
2023-04-07T07:35:53.871Z,11.30
2023-04-07T07:38:22.245Z,11.50
2023-04-07T07:40:50.562Z,11.60
2023-04-07T07:43:19.232Z,11.80
2023-04-07T07:45:47.805Z,12.00
2023-04-07T07:48:16.318Z,12.10
2023-04-07T07:50:47.173Z,12.40
2023-04-07T07:53:15.714Z,12.60
2023-04-07T07:55:44.073Z,12.80
2023-04-07T07:58:12.600Z,13.20
2023-04-07T08:00:40.970Z,13.60
2023-04-07T08:03:09.621Z,13.90
2023-04-07T08:05:38.178Z,14.30
2023-04-07T08:08:08.185Z,14.60
2023-04-07T08:10:36.652Z,15.00
2023-04-07T08:13:05.333Z,15.20
2023-04-07T08:15:33.849Z,15.40
2023-04-07T08:18:04.610Z,15.70
2023-04-07T08:20:33.623Z,15.90
2023-04-07T08:23:02.881Z,16.20
2023-04-07T08:25:32.683Z,16.30
2023-04-07T08:28:01.409Z,16.20
2023-04-07T08:30:29.906Z,16.00
2023-04-07T08:32:58.615Z,16.00
2023-04-07T08:35:27.337Z,16.10
2023-04-07T08:37:55.768Z,16.30
2023-04-07T08:40:24.385Z,16.20
2023-04-07T08:42:54.600Z,16.20
2023-04-07T08:45:23.336Z,16.50
2023-04-07T08:47:53.663Z,16.70
2023-04-07T08:50:22.779Z,16.60
2023-04-07T08:52:51.652Z,16.50
2023-04-07T08:55:20.181Z,16.10
2023-04-07T08:57:49.096Z,16.10
2023-04-07T09:00:19.609Z,16.30
2023-04-07T09:02:49.580Z,16.40
2023-04-07T09:05:18.122Z,16.20
2023-04-07T09:07:46.558Z,16.00
2023-04-07T09:10:15.064Z,15.90
2023-04-07T09:12:43.412Z,16.00
2023-04-07T09:15:11.822Z,16.30
2023-04-07T09:17:41.972Z,16.40
2023-04-07T09:20:10.909Z,16.30
2023-04-07T09:22:40.127Z,16.00
2023-04-07T09:25:13.138Z,15.90
2023-04-07T09:27:41.740Z,15.70
2023-04-07T09:30:14.748Z,15.40
2023-04-07T09:32:44.763Z,15.20
2023-04-07T09:35:13.299Z,15.20
2023-04-07T09:37:42.657Z,15.10
2023-04-07T09:40:11.255Z,15.00
2023-04-07T09:42:46.286Z,14.90
2023-04-07T09:45:33.952Z,14.70
2023-04-07T09:48:08.864Z,14.60
2023-04-07T09:50:38.222Z,14.60
2023-04-07T09:53:07.181Z,14.70
2023-04-07T09:55:36.613Z,14.60
2023-04-07T09:58:06.421Z,14.50
2023-04-07T10:00:34.948Z,14.50
2023-04-07T10:03:04.734Z,14.50
2023-04-07T10:05:35.749Z,14.60
2023-04-07T10:08:04.120Z,14.60
2023-04-07T10:10:32.911Z,14.70
2023-04-07T10:13:01.408Z,14.70
2023-04-07T10:15:29.915Z,14.80
2023-04-07T10:17:58.646Z,14.70
2023-04-07T10:20:28.043Z,14.50
2023-04-07T10:23:02.916Z,14.60
2023-04-07T10:25:31.626Z,14.30
2023-04-07T10:28:01.528Z,14.10
2023-04-07T10:30:31.286Z,14.00
2023-04-07T10:32:59.794Z,14.10
2023-04-07T10:35:28.500Z,14.10
2023-04-07T10:38:14.079Z,14.00
2023-04-07T10:40:43.229Z,14.10
2023-04-07T10:43:12.147Z,14.20
2023-04-07T10:45:59.508Z,14.30
2023-04-07T10:48:33.093Z,14.20
2023-04-07T10:51:18.018Z,14.00
2023-04-07T10:54:20.703Z,14.10
2023-04-07T10:57:10.291Z,14.20
2023-04-07T10:59:40.740Z,14.40
2023-04-07T11:02:27.857Z,14.40
2023-04-07T11:04:56.645Z,14.20
2023-04-07T11:07:44.811Z,14.40
2023-04-07T11:10:15.394Z,14.40
2023-04-07T11:12:44.125Z,14.20
2023-04-07T11:15:20.869Z,14.30
2023-04-07T11:18:07.470Z,14.20
2023-04-07T11:20:49.157Z,14.10
2023-04-07T11:23:18.590Z,14.20
2023-04-07T11:25:47.791Z,14.30
2023-04-07T11:28:16.804Z,14.30
2023-04-07T11:30:51.894Z,14.20
2023-04-07T11:33:21.477Z,14.10
2023-04-07T11:35:53.794Z,14.10
2023-04-07T11:38:22.688Z,14.10
2023-04-07T11:40:51.436Z,14.20
2023-04-07T11:43:21.017Z,14.30
2023-04-07T11:46:04.259Z,14.40
2023-04-07T11:48:35.152Z,14.50
2023-04-07T11:51:03.934Z,14.40
2023-04-07T11:53:33.275Z,14.40
2023-04-07T11:56:02.522Z,14.40
2023-04-07T11:58:31.153Z,14.50
2023-04-07T12:01:03.622Z,14.60
2023-04-07T12:03:32.625Z,14.60
2023-04-07T12:06:02.959Z,14.60
2023-04-07T12:08:41.108Z,14.50
2023-04-07T12:11:10.275Z,14.70
2023-04-07T12:13:38.912Z,14.60
2023-04-07T12:16:07.535Z,14.60
2023-04-07T12:18:36.646Z,14.40
2023-04-07T12:21:06.696Z,14.50
2023-04-07T12:23:35.332Z,14.70
2023-04-07T12:26:03.815Z,14.60
2023-04-07T12:28:32.184Z,14.40
2023-04-07T12:31:00.640Z,14.40
2023-04-07T12:33:29.056Z,14.50
2023-04-07T12:35:58.228Z,14.50
2023-04-07T12:38:28.940Z,14.40
2023-04-07T12:41:03.335Z,14.40
2023-04-07T12:43:31.833Z,14.40
2023-04-07T12:46:02.334Z,14.30
2023-04-07T12:48:31.019Z,14.50
2023-04-07T12:50:59.531Z,14.50
2023-04-07T12:53:29.364Z,14.50
2023-04-07T12:55:57.988Z,14.70
2023-04-07T12:58:26.567Z,14.70
2023-04-07T13:00:55.092Z,14.60
2023-04-07T13:03:23.714Z,14.50
2023-04-07T13:05:54.273Z,14.40
2023-04-07T13:08:22.708Z,14.60
2023-04-07T13:10:52.599Z,14.50
2023-04-07T13:13:21.250Z,14.60
2023-04-07T13:15:49.832Z,14.60
2023-04-07T13:18:18.269Z,14.30
2023-04-07T13:20:55.167Z,14.50
2023-04-07T13:23:42.937Z,14.40
2023-04-07T13:26:13.587Z,14.30
2023-04-07T13:28:42.906Z,14.30
2023-04-07T13:31:13.239Z,14.40
2023-04-07T13:33:41.787Z,14.60
2023-04-07T13:36:10.513Z,14.60
2023-04-07T13:38:38.980Z,14.60
2023-04-07T13:41:07.476Z,14.60
2023-04-07T13:43:37.203Z,14.30
2023-04-07T13:46:11.758Z,14.20
2023-04-07T13:48:45.748Z,14.30
2023-04-07T13:51:14.236Z,14.40
2023-04-07T13:53:42.811Z,14.30
2023-04-07T13:56:11.303Z,14.50
2023-04-07T13:58:41.114Z,14.40
2023-04-07T14:01:09.632Z,14.30
2023-04-07T14:03:38.829Z,14.50
2023-04-07T14:06:07.403Z,14.50
2023-04-07T14:08:35.785Z,14.60
2023-04-07T14:11:04.438Z,14.80
2023-04-07T14:13:32.916Z,14.60
2023-04-07T14:16:02.808Z,14.40
2023-04-07T14:18:31.583Z,14.50
2023-04-07T14:21:00.494Z,14.40
2023-04-07T14:23:50.965Z,14.40
2023-04-07T14:26:17.482Z,14.40
2023-04-07T14:28:46.032Z,14.60
2023-04-07T14:31:16.950Z,14.60
2023-04-07T14:33:45.694Z,14.70
2023-04-07T14:36:15.296Z,14.80
2023-04-07T14:38:44.311Z,14.80
2023-04-07T14:41:13.274Z,14.70
2023-04-07T14:43:42.541Z,14.70
2023-04-07T14:46:12.286Z,14.70
2023-04-07T14:48:42.343Z,14.60
2023-04-07T14:51:13.923Z,14.50
2023-04-07T14:53:43.556Z,14.40
2023-04-07T14:56:12.061Z,14.40
2023-04-07T14:58:40.835Z,14.50
2023-04-07T15:01:09.377Z,14.60
2023-04-07T15:03:38.123Z,14.60
2023-04-07T15:06:11.194Z,14.60
2023-04-07T15:08:39.769Z,14.50
2023-04-07T15:11:08.343Z,14.40
2023-04-07T15:13:37.409Z,14.50
2023-04-07T15:16:09.740Z,14.40
2023-04-07T15:18:39.370Z,14.40
2023-04-07T15:21:08.042Z,14.50
2023-04-07T15:23:39.014Z,14.60
2023-04-07T15:26:07.639Z,14.50
2023-04-07T15:28:36.180Z,14.40
2023-04-07T15:31:08.655Z,14.50
2023-04-07T15:33:37.720Z,14.50
2023-04-07T15:36:06.781Z,14.40
2023-04-07T15:38:35.237Z,14.30
2023-04-07T15:41:05.129Z,14.40
2023-04-07T15:43:34.596Z,14.40
2023-04-07T15:46:03.109Z,14.30
2023-04-07T15:48:31.643Z,14.20
2023-04-07T15:51:00.166Z,14.20
2023-04-07T15:53:28.705Z,14.20
2023-04-07T15:55:57.169Z,14.30
2023-04-07T15:58:26.950Z,14.40
2023-04-07T16:00:55.449Z,14.40
2023-04-07T16:03:24.141Z,14.20
2023-04-07T16:05:52.788Z,14.20
2023-04-07T16:08:21.335Z,14.20
2023-04-07T16:10:49.794Z,14.20
2023-04-07T16:13:18.238Z,14.20
2023-04-07T16:15:48.272Z,14.10
2023-04-07T16:18:16.734Z,14.20
2023-04-07T16:20:45.222Z,14.20
2023-04-07T16:23:13.761Z,14.20
2023-04-07T16:25:42.190Z,14.20
2023-04-07T16:28:10.553Z,14.20
2023-04-07T16:30:39.059Z,14.10
2023-04-07T16:33:09.334Z,14.10
2023-04-07T16:35:37.901Z,14.00
2023-04-07T16:38:06.857Z,14.10
2023-04-07T16:40:35.377Z,14.00
2023-04-07T16:43:03.795Z,14.00
2023-04-07T16:45:32.252Z,14.00
2023-04-07T16:48:00.918Z,14.00
2023-04-07T16:50:30.810Z,13.90
2023-04-07T16:52:59.393Z,14.00
2023-04-07T16:55:27.827Z,13.90
2023-04-07T16:57:56.217Z,13.90
2023-04-07T17:00:24.748Z,13.80
2023-04-07T17:02:53.428Z,13.90
2023-04-07T17:05:22.042Z,13.80
2023-04-07T17:07:51.935Z,13.70
2023-04-07T17:10:20.569Z,13.70
2023-04-07T17:12:53.262Z,13.70
2023-04-07T17:15:21.810Z,13.70
2023-04-07T17:17:50.551Z,13.60
2023-04-07T17:20:19.128Z,13.60
2023-04-07T17:22:49.057Z,13.60
2023-04-07T17:25:19.253Z,13.60
2023-04-07T17:27:48.391Z,13.60
2023-04-07T17:30:18.285Z,13.50
2023-04-07T17:32:46.814Z,13.50
2023-04-07T17:35:15.330Z,13.50
2023-04-07T17:37:43.790Z,13.50
2023-04-07T17:40:12.606Z,13.40
2023-04-07T17:42:43.045Z,13.40
2023-04-07T17:45:11.908Z,13.40
2023-04-07T17:47:40.443Z,13.40
2023-04-07T17:50:09.811Z,13.40
2023-04-07T17:52:38.771Z,13.40
2023-04-07T17:55:08.111Z,13.30
2023-04-07T17:57:36.951Z,13.20
2023-04-07T18:00:07.869Z,13.10
2023-04-07T18:02:36.696Z,13.00
2023-04-07T18:05:07.208Z,13.00
2023-04-07T18:07:35.725Z,12.90
2023-04-07T18:10:04.346Z,12.90
2023-04-07T18:12:32.884Z,12.90
2023-04-07T18:15:01.262Z,12.80
2023-04-07T18:17:31.176Z,12.80
2023-04-07T18:19:59.641Z,12.90
2023-04-07T18:22:28.534Z,12.90
2023-04-07T18:24:57.023Z,12.90
2023-04-07T18:27:28.062Z,12.80
2023-04-07T18:29:56.794Z,12.80
2023-04-07T18:32:25.406Z,12.80
2023-04-07T18:34:55.360Z,12.80
2023-04-07T18:37:23.843Z,12.90
2023-04-07T18:39:53.729Z,12.80
2023-04-07T18:42:22.204Z,12.80
2023-04-07T18:44:50.742Z,12.70
2023-04-07T18:47:19.361Z,12.70
2023-04-07T18:49:47.854Z,12.70
2023-04-07T18:52:17.967Z,12.70
2023-04-07T18:54:46.495Z,12.70
2023-04-07T18:57:14.907Z,12.60
2023-04-07T18:59:43.791Z,12.70
2023-04-07T19:02:12.288Z,12.60
2023-04-07T19:04:41.235Z,12.60
2023-04-07T19:07:09.707Z,12.50
2023-04-07T19:09:39.933Z,12.40
2023-04-07T19:12:09.443Z,12.30
2023-04-07T19:14:37.950Z,12.30
2023-04-07T19:17:06.568Z,12.30
2023-04-07T19:19:35.063Z,12.30
2023-04-07T19:22:03.579Z,12.40
2023-04-07T19:24:32.338Z,12.40
2023-04-07T19:27:02.118Z,12.30
2023-04-07T19:29:30.507Z,12.20
2023-04-07T19:31:59.050Z,12.10
2023-04-07T19:34:27.525Z,12.10
2023-04-07T19:36:56.022Z,12.10
2023-04-07T19:39:25.247Z,12.00
2023-04-07T19:41:53.681Z,12.00
2023-04-07T19:44:23.470Z,12.10
2023-04-07T19:46:53.443Z,12.10
2023-04-07T19:49:21.859Z,12.00
2023-04-07T19:51:50.350Z,12.00
2023-04-07T19:54:18.845Z,12.10
2023-04-07T19:56:47.335Z,12.00
2023-04-07T19:59:15.862Z,12.00
2023-04-07T20:01:45.939Z,12.00
2023-04-07T20:04:14.507Z,11.90
2023-04-07T20:06:43.063Z,11.90
2023-04-07T20:09:11.638Z,11.90
2023-04-07T20:11:40.113Z,11.80
2023-04-07T20:14:08.649Z,11.90
2023-04-07T20:16:37.521Z,11.90
2023-04-07T20:19:07.387Z,11.80
2023-04-07T20:21:36.416Z,11.80
2023-04-07T20:24:05.271Z,11.80
2023-04-07T20:26:33.658Z,11.80
2023-04-07T20:29:02.064Z,11.80
2023-04-07T20:31:30.715Z,11.80
2023-04-07T20:34:00.071Z,11.80
2023-04-07T20:36:29.989Z,11.90
2023-04-07T20:38:58.716Z,11.90
2023-04-07T20:41:27.125Z,11.80
2023-04-07T20:43:55.877Z,11.80
2023-04-07T20:46:24.385Z,11.80
2023-04-07T20:48:52.855Z,11.80
2023-04-07T20:51:22.246Z,11.70
2023-04-07T20:53:52.330Z,11.70
2023-04-07T20:56:21.755Z,11.60
2023-04-07T20:58:50.332Z,11.60
2023-04-07T21:01:18.993Z,11.60
2023-04-07T21:03:47.798Z,11.60
2023-04-07T21:06:16.339Z,11.50
2023-04-07T21:08:44.744Z,11.50
2023-04-07T21:11:14.671Z,11.50
2023-04-07T21:13:43.108Z,11.50
2023-04-07T21:16:11.739Z,11.40
2023-04-07T21:18:40.416Z,11.40
2023-04-07T21:21:09.081Z,11.50
2023-04-07T21:23:37.506Z,11.50
2023-04-07T21:26:06.067Z,11.40
2023-04-07T21:28:35.943Z,11.40
2023-04-07T21:31:04.592Z,11.40
2023-04-07T21:33:33.163Z,11.30
2023-04-07T21:36:01.682Z,11.20
2023-04-07T21:38:30.281Z,11.30
2023-04-07T21:40:58.789Z,11.20
2023-04-07T21:43:28.890Z,11.30
2023-04-07T21:45:58.801Z,11.20
2023-04-07T21:48:27.461Z,11.20
2023-04-07T21:50:55.923Z,11.10
2023-04-07T21:53:24.452Z,11.00
2023-04-07T21:55:53.422Z,11.10
2023-04-07T21:58:23.539Z,11.10
2023-04-07T22:00:52.061Z,11.10
2023-04-07T22:03:22.285Z,11.10
2023-04-07T22:05:51.108Z,11.00
2023-04-07T22:08:19.652Z,11.00
2023-04-07T22:10:48.170Z,11.10
2023-04-07T22:13:16.969Z,11.00
2023-04-07T22:15:46.436Z,11.00
2023-04-07T22:18:14.944Z,10.90
2023-04-07T22:20:45.256Z,11.00
2023-04-07T22:23:13.763Z,11.00
2023-04-07T22:25:42.120Z,11.00
2023-04-07T22:28:10.467Z,11.00
2023-04-07T22:30:39.162Z,11.00
2023-04-07T22:33:09.018Z,11.00
2023-04-07T22:35:39.191Z,11.10
2023-04-07T22:38:09.130Z,11.10
2023-04-07T22:40:37.530Z,11.00
2023-04-07T22:43:06.024Z,10.90
2023-04-07T22:45:35.586Z,10.80
2023-04-07T22:48:04.265Z,10.80
2023-04-07T22:50:32.735Z,10.80
2023-04-07T22:53:01.423Z,11.00
2023-04-07T22:55:31.284Z,10.90
2023-04-07T22:57:59.797Z,11.00
2023-04-07T23:00:28.247Z,11.00
2023-04-07T23:02:56.880Z,11.00
2023-04-07T23:05:25.482Z,11.10
2023-04-07T23:07:53.955Z,11.10
2023-04-07T23:10:22.431Z,11.00
2023-04-07T23:12:55.066Z,11.10
2023-04-07T23:15:23.461Z,11.00
2023-04-07T23:17:52.008Z,11.00
2023-04-07T23:20:20.542Z,11.00
2023-04-07T23:22:48.994Z,11.00
2023-04-07T23:25:17.332Z,11.10
2023-04-07T23:27:45.841Z,11.10
2023-04-07T23:30:15.798Z,11.10
2023-04-07T23:32:44.227Z,11.10
2023-04-07T23:35:12.822Z,11.10
2023-04-07T23:37:41.291Z,11.00
2023-04-07T23:40:10.862Z,11.10
2023-04-07T23:42:39.410Z,11.00
2023-04-07T23:45:08.413Z,11.00
2023-04-07T23:47:38.238Z,11.10
2023-04-07T23:50:07.324Z,11.00
2023-04-07T23:52:35.874Z,11.00
2023-04-07T23:55:04.516Z,10.90
2023-04-07T23:57:32.899Z,11.00
